createdAt,value
2022-08-18T00:04:49.963Z,12.17
2022-08-18T00:09:55.698Z,11.50
2022-08-18T00:15:03.399Z,13.27
2022-08-18T00:20:08.930Z,12.43
2022-08-18T00:25:14.010Z,12.73
2022-08-18T00:30:19.925Z,12.13
2022-08-18T00:35:29.078Z,14.13
2022-08-18T00:40:38.224Z,14.00
2022-08-18T00:45:43.575Z,12.57
2022-08-18T00:50:54.022Z,13.27
2022-08-18T00:56:00.617Z,12.87
2022-08-18T01:01:06.192Z,13.13
2022-08-18T01:06:21.338Z,12.93
2022-08-18T01:11:24.782Z,16.30
2022-08-18T01:16:53.219Z,17.30
2022-08-18T01:22:07.391Z,16.07
2022-08-18T01:27:11.310Z,16.83
2022-08-18T01:32:20.319Z,17.97
2022-08-18T01:37:24.680Z,16.17
2022-08-18T01:42:27.156Z,20.57
2022-08-18T01:47:31.367Z,19.07
2022-08-18T01:52:52.601Z,16.13
2022-08-18T01:57:56.004Z,19.63
2022-08-18T02:03:02.638Z,16.83
2022-08-18T02:08:06.817Z,18.07
2022-08-18T02:13:09.512Z,18.30
2022-08-18T02:18:37.172Z,21.50
2022-08-18T02:23:46.949Z,24.07
2022-08-18T02:28:56.337Z,18.97
2022-08-18T02:33:59.380Z,17.70
2022-08-18T02:39:02.075Z,20.30
2022-08-18T02:44:07.749Z,22.67
2022-08-18T02:49:10.258Z,21.80
2022-08-18T02:54:12.731Z,21.20
2022-08-18T02:59:21.651Z,20.40
2022-08-18T03:04:29.994Z,20.83
2022-08-18T03:09:34.471Z,23.00
2022-08-18T03:14:40.039Z,20.03
2022-08-18T03:19:46.786Z,21.23
2022-08-18T03:24:50.217Z,23.43
2022-08-18T03:29:52.783Z,21.43
2022-08-18T03:34:55.347Z,21.03
2022-08-18T03:39:57.885Z,21.23
2022-08-18T03:45:00.418Z,21.17
2022-08-18T03:50:15.243Z,22.87
2022-08-18T03:55:17.926Z,23.37
2022-08-18T04:00:20.613Z,23.37
2022-08-18T04:05:23.312Z,23.63
2022-08-18T04:10:25.867Z,23.37
2022-08-18T04:15:28.389Z,25.37
2022-08-18T04:20:34.971Z,26.83
2022-08-18T04:25:37.415Z,22.37
2022-08-18T04:30:39.846Z,25.03
2022-08-18T04:35:42.322Z,24.47
2022-08-18T04:40:45.077Z,28.73
2022-08-18T04:45:48.112Z,27.43
2022-08-18T04:50:50.739Z,27.67
2022-08-18T04:55:55.819Z,24.27
2022-08-18T05:01:00.710Z,29.47
2022-08-18T05:06:05.294Z,31.23
2022-08-18T05:11:08.563Z,27.33
2022-08-18T05:16:18.141Z,30.87
2022-08-18T05:21:23.137Z,30.23
2022-08-18T05:26:33.983Z,35.07
2022-08-18T05:31:36.429Z,33.40
2022-08-18T05:36:51.886Z,37.80
2022-08-18T05:42:13.168Z,37.37
2022-08-18T05:47:30.258Z,39.40
2022-08-18T05:52:40.279Z,30.93
2022-08-18T05:57:52.786Z,31.47
2022-08-18T06:02:55.439Z,35.30
2022-08-18T06:08:08.537Z,37.37
2022-08-18T06:13:11.557Z,38.27
2022-08-18T06:18:37.616Z,34.13
2022-08-18T06:24:05.534Z,45.43
2022-08-18T06:29:29.935Z,50.00
2022-08-18T06:35:03.675Z,27.37
2022-08-18T06:40:07.189Z,44.67
2022-08-18T06:45:14.108Z,34.43
2022-08-18T06:50:43.481Z,39.13
2022-08-18T06:55:49.769Z,33.77
2022-08-18T07:00:55.055Z,36.87
2022-08-18T07:06:01.355Z,34.20
2022-08-18T07:11:33.459Z,26.03
2022-08-18T07:16:57.253Z,38.00
2022-08-18T07:22:04.673Z,34.57
2022-08-18T07:27:15.433Z,37.30
2022-08-18T07:32:21.830Z,32.30
2022-08-18T07:37:43.349Z,56.50
2022-08-18T07:43:02.535Z,82.53
2022-08-18T07:48:37.691Z,75.77
2022-08-18T07:54:01.647Z,76.23
2022-08-18T07:59:28.693Z,66.47
2022-08-18T08:04:43.175Z,53.30
2022-08-18T08:10:07.899Z,36.10
2022-08-18T08:15:17.916Z,33.17
2022-08-18T08:21:04.718Z,19.50
2022-08-18T08:26:07.155Z,26.93
2022-08-18T08:31:37.027Z,23.17
2022-08-18T08:36:44.960Z,36.83
2022-08-18T08:41:51.351Z,25.37
2022-08-18T08:47:13.975Z,42.93
2022-08-18T08:52:33.271Z,30.03
2022-08-18T08:57:57.661Z,49.00
2022-08-18T09:03:37.005Z,31.97
2022-08-18T09:08:58.763Z,26.73
2022-08-18T09:14:24.127Z,13.13
2022-08-18T09:19:38.449Z,22.98
2022-08-18T09:24:53.018Z,25.95
2022-08-18T09:29:58.593Z,33.75
2022-08-18T09:35:07.236Z,46.08
2022-08-18T09:41:02.541Z,27.42
2022-08-18T09:46:07.687Z,37.75
2022-08-18T09:51:17.529Z,35.97
2022-08-18T09:56:54.220Z,37.13
2022-08-18T10:01:59.396Z,25.42
2022-08-18T10:07:19.375Z,27.83
2022-08-18T10:12:36.205Z,29.50
2022-08-18T10:17:56.560Z,17.08
2022-08-18T10:22:59.805Z,22.48
2022-08-18T10:28:06.028Z,21.38
2022-08-18T10:33:18.368Z,19.20
2022-08-18T10:38:53.503Z,20.48
2022-08-18T10:43:58.313Z,16.70
2022-08-18T10:49:13.339Z,16.60
2022-08-18T11:00:18.784Z,14.98
2022-08-18T11:05:25.940Z,19.00
2022-08-18T11:11:27.318Z,13.88
2022-08-18T11:16:51.955Z,19.55
2022-08-18T11:21:57.011Z,20.25
2022-08-18T11:32:32.803Z,26.10
2022-08-18T11:37:53.826Z,15.10
2022-08-18T11:42:59.082Z,12.88
2022-08-18T11:48:28.065Z,16.13
2022-08-18T11:53:57.364Z,18.38
2022-08-18T11:59:03.875Z,15.98
2022-08-18T12:04:38.419Z,13.00
2022-08-18T12:10:16.221Z,14.60
2022-08-18T12:20:44.512Z,18.30
2022-08-18T12:25:47.104Z,17.63
2022-08-18T12:30:56.527Z,18.67
2022-08-18T12:36:00.160Z,12.45
2022-08-18T12:41:03.414Z,11.35
2022-08-18T12:46:06.712Z,10.90
2022-08-18T12:51:14.473Z,22.08
2022-08-18T12:56:26.128Z,18.65
2022-08-18T13:01:29.409Z,16.45
2022-08-18T13:06:35.808Z,18.65
2022-08-18T13:11:38.201Z,9.50
2022-08-18T13:16:54.697Z,18.85
2022-08-18T13:21:58.030Z,18.48
2022-08-18T13:27:04.166Z,17.85
2022-08-18T13:32:21.363Z,12.48
2022-08-18T13:37:26.600Z,18.75
2022-08-18T13:42:32.170Z,14.85
2022-08-18T13:47:52.864Z,13.77
2022-08-18T13:53:00.956Z,17.70
2022-08-18T13:58:03.750Z,17.30
2022-08-18T14:03:42.283Z,20.85
2022-08-18T14:08:46.443Z,12.57
2022-08-18T14:13:48.983Z,14.90
2022-08-18T14:19:10.616Z,13.27
2022-08-18T14:24:31.936Z,12.02
2022-08-18T14:29:46.051Z,10.30
2022-08-18T14:34:51.103Z,15.40
2022-08-18T14:40:01.195Z,14.13
2022-08-18T14:45:26.504Z,12.55
2022-08-18T14:50:35.118Z,12.65
2022-08-18T14:55:37.876Z,13.23
2022-08-18T15:00:53.423Z,10.15
2022-08-18T15:05:56.969Z,10.43
2022-08-18T15:10:59.823Z,9.02
2022-08-18T15:16:02.369Z,10.95
2022-08-18T15:21:38.444Z,8.48
2022-08-18T15:26:42.527Z,8.90
2022-08-18T15:31:50.319Z,9.13
2022-08-18T15:36:53.512Z,10.65
2022-08-18T15:41:58.103Z,9.95
2022-08-18T15:47:00.787Z,9.90
2022-08-18T15:52:04.107Z,12.20
2022-08-18T15:57:06.604Z,10.27
2022-08-18T16:02:12.019Z,10.05
2022-08-18T16:07:40.020Z,10.90
2022-08-18T16:12:46.271Z,9.25
2022-08-18T16:17:50.723Z,13.65
2022-08-18T16:22:53.736Z,11.82
2022-08-18T16:27:59.009Z,10.45
2022-08-18T16:33:03.636Z,8.75
2022-08-18T16:38:08.880Z,14.77
2022-08-18T16:43:12.799Z,9.13
2022-08-18T16:48:16.980Z,10.10
2022-08-18T16:53:19.508Z,13.23
2022-08-18T16:58:40.647Z,11.35
2022-08-18T17:04:01.831Z,11.18
2022-08-18T17:09:10.084Z,14.70
2022-08-18T17:14:12.775Z,12.20
2022-08-18T17:19:15.227Z,14.10
2022-08-18T17:24:18.598Z,12.48
2022-08-18T17:29:53.154Z,18.65
2022-08-18T17:35:03.888Z,14.30
2022-08-18T17:40:24.420Z,14.85
2022-08-18T17:45:34.838Z,15.57
2022-08-18T17:51:09.847Z,11.95
2022-08-18T17:56:19.775Z,12.52
2022-08-18T18:01:25.739Z,18.17
2022-08-18T18:06:34.098Z,16.67
2022-08-18T18:11:42.991Z,16.58
2022-08-18T18:16:59.293Z,17.33
2022-08-18T18:22:17.610Z,14.43
2022-08-18T18:27:47.423Z,11.55
2022-08-18T18:32:59.483Z,17.13
2022-08-18T18:38:25.396Z,13.32
2022-08-18T18:43:38.529Z,16.85
2022-08-18T18:49:03.143Z,15.98
2022-08-18T18:54:20.469Z,13.80
2022-08-18T18:59:39.537Z,10.73
2022-08-18T19:04:51.064Z,13.30
2022-08-18T19:10:09.418Z,15.48
2022-08-18T19:15:14.980Z,11.50
2022-08-18T19:20:26.784Z,12.50
2022-08-18T19:25:31.560Z,17.92
2022-08-18T19:30:36.964Z,12.50
2022-08-18T19:35:58.653Z,20.00
2022-08-18T19:41:20.092Z,12.88
2022-08-18T19:46:47.787Z,14.55
2022-08-18T19:51:59.431Z,14.10
2022-08-18T19:57:12.953Z,14.40
2022-08-18T20:02:53.149Z,11.70
2022-08-18T20:08:02.500Z,13.00
2022-08-18T20:13:17.097Z,13.73
2022-08-18T20:18:23.341Z,12.63
2022-08-18T20:23:35.040Z,13.03
2022-08-18T20:28:39.895Z,11.57
2022-08-18T20:33:47.176Z,11.90
2022-08-18T20:38:53.116Z,14.03
2022-08-18T20:44:21.313Z,11.93
2022-08-18T20:49:53.885Z,14.20
2022-08-18T20:55:12.049Z,16.67
2022-08-18T21:00:26.804Z,13.63
2022-08-18T21:05:36.117Z,14.47
2022-08-18T21:10:55.383Z,11.93
2022-08-18T21:15:59.382Z,14.83
2022-08-18T21:21:04.995Z,12.63
2022-08-18T21:26:14.366Z,12.80
2022-08-18T21:31:44.213Z,14.03
2022-08-18T21:36:56.303Z,13.40
2022-08-18T21:41:59.564Z,12.90
2022-08-18T21:47:26.134Z,13.10
2022-08-18T21:52:31.200Z,13.07
2022-08-18T21:58:14.062Z,17.53
2022-08-18T22:03:26.211Z,12.70
2022-08-18T22:08:50.870Z,14.23
2022-08-18T22:13:59.870Z,12.17
2022-08-18T22:19:14.510Z,18.50
2022-08-18T22:24:22.811Z,11.60
2022-08-18T22:29:32.631Z,18.70
2022-08-18T22:34:35.128Z,14.87
2022-08-18T22:39:39.631Z,12.90
2022-08-18T22:44:43.675Z,16.53
2022-08-18T22:49:46.953Z,12.07
2022-08-18T22:54:50.923Z,12.80
2022-08-18T22:59:54.462Z,12.97
2022-08-18T23:04:59.220Z,18.40
2022-08-18T23:10:01.822Z,13.07
2022-08-18T23:15:12.006Z,12.60
2022-08-18T23:20:19.152Z,18.67
2022-08-18T23:25:22.344Z,14.27
2022-08-18T23:30:30.006Z,18.60
2022-08-18T23:35:34.506Z,15.60
2022-08-18T23:40:38.622Z,15.23
2022-08-18T23:45:47.144Z,15.13
2022-08-18T23:50:50.149Z,15.77
2022-08-18T23:55:52.590Z,14.30
